Terminal Aerodrome Forecast
Issued by NWS Albany, NY

Home | Current Version | Previous Version | Text Only | Print | Product List | Glossary On
Versions: 1 2 3 4 5 6 7 8 9 10 11 12 13 14 15 16 17 18 19 20
505
FTUS41 KALY 221131
TAFALB
TAF
KALB 221131Z 2212/2312 18006KT P6SM SCT060 BKN260
     FM221500 18010G18KT P6SM SCT050 BKN120
     FM222100 20012G22KT P6SM VCSH SCT025 BKN040 OVC080 PROB30
      2223/2305 2SM TSRA BR SCT008 OVC025CB
     FM230500 22010KT P6SM VCSH BKN025 OVC040
     FM230900 26010KT P6SM SCT025 OVC040=

USA.gov is the U.S. government's official web portal to all federal, state and local government web resources and services.